Elmira, West Virginia
Current Conditions -  °F | °C
As of 3:54 AM on Wednesday 22 Oct 2014 (Local Time) from KCRW Reporting Station
Overcast Overcast  
Wind Chill: 44°   Ceiling: 1200
Heat Index: 46°   Visibility: 10mi
Dew Point: 41°   Wind: 5mph
Humidity: 83%   Direction: 300°WNW
Pressure: 30.1"   Gusts: NA
Location:  38.66°N, 80.99°W
Report Text: KCRW 220754Z 30004KT 10SM BKN012 OVC021 08/05 A3010 RMK AO2 SLP192 T00780050
Loading
Personal Weather Stations






























Interactive Weather Map
Tropical Storm Tracking
New forecast layout! Learn more

10-Day Weather Forecast

Advertisements
Track Severe Weather on mobile